Time;durP1;ratioP1;P1;durP2;ratioP2;P2;SDS_P1;SDS_P2;PMS_P1;PMS_P2;Temp;Humidity;BMP_temperature;BMP_pressure;BME280_temperature;BME280_humidity;BME280_pressure;Samples;Min_cycle;Max_cycle;Signal;HPM_P1;HPM_P2
2022/03/09 00:01:22;;;;;;;11.33;6.30;;;;;;;;;;10489272;28;20380;-50
2022/03/09 00:06:22;;;;;;;9.03;5.60;;;;;;;;;;10494046;28;20470;-52
2022/03/09 00:11:22;;;;;;;10.57;5.93;;;;;;;;;;10496138;28;20442;-51
2022/03/09 00:16:23;;;;;;;9.97;5.73;;;;;;;;;;10495046;28;20024;-56
2022/03/09 00:21:23;;;;;;;8.97;5.70;;;;;;;;;;10495297;28;20450;-54
2022/03/09 00:26:23;;;;;;;8.70;5.43;;;;;;;;;;10494644;28;20134;-52
2022/03/09 00:31:24;;;;;;;11.70;6.27;;;;;;;;;;10494964;28;20021;-50
2022/03/09 00:36:24;;;;;;;11.40;5.10;;;;;;;;;;10494800;28;20996;-59
2022/03/09 00:41:25;;;;;;;7.73;4.87;;;;;;;;;;10493955;28;20500;-49
2022/03/09 00:46:25;;;;;;;10.35;5.70;;;;;;;;;;10493703;28;20489;-50
2022/03/09 00:51:25;;;;;;;11.50;5.87;;;;;;;;;;10493636;28;20388;-52
2022/03/09 00:56:26;;;;;;;9.53;5.97;;;;;;;;;;10493447;28;20472;-50
2022/03/09 01:01:26;;;;;;;8.38;5.03;;;;;;;;;;10489012;28;20021;-51
2022/03/09 01:06:27;;;;;;;9.10;5.50;;;;;;;;;;10492905;28;20127;-52
2022/03/09 01:11:27;;;;;;;12.73;5.78;;;;;;;;;;10489517;28;20445;-52
2022/03/09 01:16:27;;;;;;;7.80;5.03;;;;;;;;;;10492779;28;20457;-56
2022/03/09 01:21:28;;;;;;;10.65;5.78;;;;;;;;;;10474696;28;20608;-50
2022/03/09 01:26:28;;;;;;;6.85;5.05;;;;;;;;;;10492167;28;20383;-55
2022/03/09 01:31:29;;;;;;;8.77;5.20;;;;;;;;;;10492179;28;20103;-51
2022/03/09 01:36:29;;;;;;;7.53;5.13;;;;;;;;;;10492028;28;20025;-50
2022/03/09 01:41:29;;;;;;;9.17;4.97;;;;;;;;;;10491858;28;20131;-49
2022/03/09 01:46:30;;;;;;;7.93;5.25;;;;;;;;;;10491529;28;20461;-50
2022/03/09 01:51:32;;;;;;;8.87;5.27;;;;;;;;;;10491604;28;20172;-49
2022/03/09 01:56:33;;;;;;;6.10;4.70;;;;;;;;;;10491195;28;20461;-49
2022/03/09 02:01:34;;;;;;;8.50;5.38;;;;;;;;;;10490545;28;20104;-50
2022/03/09 02:06:36;;;;;;;8.15;5.40;;;;;;;;;;10490987;28;20124;-50
2022/03/09 02:11:37;;;;;;;7.88;5.30;;;;;;;;;;10485396;28;20375;-52
2022/03/09 02:16:37;;;;;;;6.82;4.72;;;;;;;;;;10491719;28;20024;-52
2022/03/09 02:21:38;;;;;;;8.33;5.63;;;;;;;;;;10490952;28;20024;-49
2022/03/09 02:26:39;;;;;;;8.07;5.05;;;;;;;;;;10491863;28;20755;-49
2022/03/09 02:31:39;;;;;;;7.20;5.03;;;;;;;;;;10499776;28;20083;-61
2022/03/09 02:36:39;;;;;;;9.80;5.27;;;;;;;;;;10481158;28;20024;-50
2022/03/09 02:41:40;;;;;;;6.57;4.80;;;;;;;;;;10499019;28;20503;-49
2022/03/09 02:46:40;;;;;;;9.17;5.53;;;;;;;;;;10498934;28;20502;-53
2022/03/09 02:51:41;;;;;;;8.50;5.10;;;;;;;;;;10498151;28;20033;-49
2022/03/09 02:56:41;;;;;;;6.97;5.15;;;;;;;;;;10498214;28;20116;-56
2022/03/09 03:01:42;;;;;;;7.37;5.07;;;;;;;;;;10497762;28;20025;-50
2022/03/09 03:06:42;;;;;;;6.90;4.90;;;;;;;;;;10498036;28;20859;-49
2022/03/09 03:11:42;;;;;;;7.07;5.03;;;;;;;;;;10494578;28;20142;-50
2022/03/09 03:16:43;;;;;;;8.37;5.30;;;;;;;;;;10494394;28;20437;-51
2022/03/09 03:21:43;;;;;;;6.03;4.80;;;;;;;;;;10497757;28;20052;-50
2022/03/09 03:26:43;;;;;;;8.53;5.60;;;;;;;;;;10497140;28;20026;-49
2022/03/09 03:31:44;;;;;;;8.15;5.55;;;;;;;;;;10497346;28;20031;-50
2022/03/09 03:36:44;;;;;;;6.13;4.33;;;;;;;;;;10496557;28;20025;-52
2022/03/09 03:41:44;;;;;;;8.97;5.03;;;;;;;;;;10496591;28;20529;-50
2022/03/09 03:46:45;;;;;;;5.63;4.53;;;;;;;;;;10496290;28;20032;-50
2022/03/09 03:51:45;;;;;;;7.00;5.00;;;;;;;;;;10496424;28;20029;-50
2022/03/09 03:56:46;;;;;;;6.43;5.17;;;;;;;;;;10496420;28;20050;-52
2022/03/09 04:01:47;;;;;;;7.38;5.00;;;;;;;;;;10495720;28;20448;-51
2022/03/09 04:06:47;;;;;;;7.80;5.20;;;;;;;;;;10495442;28;20028;-51
2022/03/09 04:11:47;;;;;;;7.73;4.80;;;;;;;;;;10495425;28;20016;-52
2022/03/09 04:16:49;;;;;;;6.20;4.83;;;;;;;;;;10489039;28;20863;-52
2022/03/09 04:21:49;;;;;;;8.27;5.18;;;;;;;;;;10495512;28;20452;-52
2022/03/09 04:26:50;;;;;;;5.95;4.88;;;;;;;;;;10495648;28;20035;-50
2022/03/09 04:31:50;;;;;;;7.72;4.88;;;;;;;;;;10494603;28;20381;-58
2022/03/09 04:36:51;;;;;;;7.80;5.40;;;;;;;;;;10494725;28;20032;-49
2022/03/09 04:41:51;;;;;;;7.70;5.07;;;;;;;;;;10494115;28;20522;-49
2022/03/09 04:46:51;;;;;;;6.73;4.80;;;;;;;;;;10493793;28;20863;-50
2022/03/09 04:51:52;;;;;;;7.20;4.90;;;;;;;;;;10493261;28;20623;-50
2022/03/09 04:56:52;;;;;;;7.97;5.30;;;;;;;;;;10493902;28;20545;-49
2022/03/09 05:01:53;;;;;;;8.02;5.10;;;;;;;;;;10493449;28;20580;-50
2022/03/09 05:06:53;;;;;;;8.90;4.77;;;;;;;;;;10493341;28;20028;-50
2022/03/09 05:11:54;;;;;;;7.75;4.75;;;;;;;;;;10492813;28;20449;-52
2022/03/09 05:16:54;;;;;;;5.88;4.93;;;;;;;;;;10489314;28;20032;-50
2022/03/09 05:21:55;;;;;;;8.27;5.10;;;;;;;;;;10489282;28;20437;-53
2022/03/09 05:26:55;;;;;;;7.72;5.15;;;;;;;;;;10492177;28;20461;-50
2022/03/09 05:31:56;;;;;;;5.68;4.68;;;;;;;;;;10492736;28;20107;-52
2022/03/09 05:36:56;;;;;;;8.40;4.95;;;;;;;;;;10492270;28;20456;-50
2022/03/09 05:41:57;;;;;;;6.67;4.77;;;;;;;;;;10491902;28;20498;-49
2022/03/09 05:46:57;;;;;;;6.90;4.82;;;;;;;;;;10492031;28;20581;-49
2022/03/09 05:51:57;;;;;;;7.30;5.05;;;;;;;;;;10491993;28;20103;-50
2022/03/09 05:56:58;;;;;;;7.13;4.78;;;;;;;;;;10491761;28;20020;-50
2022/03/09 06:01:58;;;;;;;6.90;4.93;;;;;;;;;;10491372;28;20027;-51
2022/03/09 06:07:01;;;;;;;6.05;4.57;;;;;;;;;;10491279;28;20562;-49
2022/03/09 06:12:02;;;;;;;8.25;5.25;;;;;;;;;;10491709;28;20028;-49
2022/03/09 06:17:03;;;;;;;7.18;4.38;;;;;;;;;;10491799;28;20593;-53
2022/03/09 06:22:03;;;;;;;5.88;4.68;;;;;;;;;;10483933;28;20468;-53
2022/03/09 06:27:04;;;;;;;7.85;4.93;;;;;;;;;;10490826;28;20025;-54
2022/03/09 06:32:04;;;;;;;7.28;5.18;;;;;;;;;;10490507;28;20108;-57
2022/03/09 06:37:05;;;;;;;5.90;4.75;;;;;;;;;;10491245;28;20028;-55
2022/03/09 06:42:06;;;;;;;6.22;4.78;;;;;;;;;;10490496;28;20052;-52
2022/03/09 06:47:06;;;;;;;7.88;5.47;;;;;;;;;;10490662;28;20044;-54
2022/03/09 06:52:07;;;;;;;7.20;5.07;;;;;;;;;;10489861;28;20107;-55
2022/03/09 06:57:08;;;;;;;8.45;5.75;;;;;;;;;;10490321;28;20052;-51
2022/03/09 07:02:09;;;;;;;7.28;5.40;;;;;;;;;;10490157;28;20048;-52
2022/03/09 07:07:09;;;;;;;6.72;4.85;;;;;;;;;;10489306;28;20024;-51
2022/03/09 07:12:10;;;;;;;7.10;5.30;;;;;;;;;;10489786;28;20380;-56
2022/03/09 07:17:10;;;;;;;7.13;4.50;;;;;;;;;;10497190;28;20440;-54
2022/03/09 07:22:10;;;;;;;8.85;4.72;;;;;;;;;;10493141;28;20021;-50
2022/03/09 07:27:11;;;;;;;6.60;5.53;;;;;;;;;;10496880;28;20032;-50
2022/03/09 07:32:14;;;;;;;10.17;5.27;;;;;;;;;;10493378;28;20020;-49
2022/03/09 07:37:14;;;;;;;7.50;4.80;;;;;;;;;;10496548;28;20511;-50
2022/03/09 07:42:15;;;;;;;9.20;5.55;;;;;;;;;;10496076;28;20036;-58
2022/03/09 07:47:16;;;;;;;10.82;5.15;;;;;;;;;;10494796;28;20067;-62
2022/03/09 07:52:16;;;;;;;8.47;5.63;;;;;;;;;;10494788;28;20432;-59
2022/03/09 07:57:16;;;;;;;6.20;5.17;;;;;;;;;;10494981;28;20450;-59
2022/03/09 08:02:17;;;;;;;9.43;5.45;;;;;;;;;;10494696;28;20070;-61
2022/03/09 08:07:17;;;;;;;9.00;5.20;;;;;;;;;;10493862;28;20412;-59
2022/03/09 08:12:18;;;;;;;8.30;5.45;;;;;;;;;;10494080;28;20516;-59
2022/03/09 08:17:19;;;;;;;32.27;18.50;;;;;;;;;;10494150;28;20273;-59
2022/03/09 08:22:20;;;;;;;21.70;11.20;;;;;;;;;;10493992;28;20519;-58
2022/03/09 08:27:20;;;;;;;28.85;12.68;;;;;;;;;;10493223;28;20031;-59
2022/03/09 08:32:21;;;;;;;20.42;11.40;;;;;;;;;;10470252;28;20107;-59
2022/03/09 08:37:21;;;;;;;16.25;11.50;;;;;;;;;;10493953;28;20024;-58
2022/03/09 08:42:22;;;;;;;21.80;11.13;;;;;;;;;;10493201;28;20048;-58
2022/03/09 08:47:22;;;;;;;19.48;11.20;;;;;;;;;;10493184;28;20467;-58
2022/03/09 08:52:23;;;;;;;15.63;11.20;;;;;;;;;;10492541;28;20021;-59
2022/03/09 08:57:23;;;;;;;15.80;9.82;;;;;;;;;;10492499;28;20028;-58
2022/03/09 09:02:24;;;;;;;16.07;10.47;;;;;;;;;;10492948;28;20126;-60
2022/03/09 09:07:26;;;;;;;15.30;9.55;;;;;;;;;;10493208;28;20996;-59
2022/03/09 09:12:26;;;;;;;13.55;9.57;;;;;;;;;;10492728;28;20115;-60
2022/03/09 09:17:26;;;;;;;13.00;8.70;;;;;;;;;;10491488;28;20032;-59
2022/03/09 09:22:27;;;;;;;32.97;18.20;;;;;;;;;;10491630;28;20960;-62
2022/03/09 09:27:28;;;;;;;53.53;30.10;;;;;;;;;;10487287;28;20464;-61
2022/03/09 09:32:28;;;;;;;75.97;43.17;;;;;;;;;;10481975;28;20016;-59
2022/03/09 09:37:29;;;;;;;101.85;56.63;;;;;;;;;;10488785;28;20107;-61
2022/03/09 09:42:33;;;;;;;113.90;66.03;;;;;;;;;;10482758;28;20040;-61
2022/03/09 09:47:34;;;;;;;131.50;76.15;;;;;;;;;;10486288;28;20476;-59
2022/03/09 09:52:36;;;;;;;156.32;87.05;;;;;;;;;;10487993;28;20072;-61
2022/03/09 09:57:37;;;;;;;190.15;109.07;;;;;;;;;;10489684;28;20074;-61
2022/03/09 10:02:41;;;;;;;205.77;116.85;;;;;;;;;;10491527;28;20227;-60
2022/03/09 10:08:03;;;;;;;220.27;128.40;;;;;;;;;;10491340;28;20028;-64
2022/03/09 10:13:17;;;;;;;247.57;139.98;;;;;;;;;;10490644;28;20059;-58
2022/03/09 10:18:19;;;;;;;257.67;149.43;;;;;;;;;;10470685;28;20032;-58
2022/03/09 10:23:21;;;;;;;272.23;164.15;;;;;;;;;;10490301;28;20023;-61
2022/03/09 10:28:21;;;;;;;293.33;177.68;;;;;;;;;;10491154;28;20096;-58
2022/03/09 10:33:22;;;;;;;303.03;186.93;;;;;;;;;;10490704;28;20535;-56
2022/03/09 10:38:25;;;;;;;319.73;194.53;;;;;;;;;;10490454;28;20537;-54
2022/03/09 10:43:28;;;;;;;225.50;131.98;;;;;;;;;;10487145;28;20070;-56
2022/03/09 10:48:56;;;;;;;229.30;138.77;;;;;;;;;;10489252;28;20419;-51
2022/03/09 10:53:58;;;;;;;256.70;152.00;;;;;;;;;;10498404;28;20490;-53
2022/03/09 10:59:09;;;;;;;283.40;170.13;;;;;;;;;;10497978;28;20085;-56
2022/03/09 11:04:15;;;;;;;295.33;181.27;;;;;;;;;;10497796;28;20491;-56
2022/03/09 11:09:17;;;;;;;274.88;169.68;;;;;;;;;;10479375;28;20055;-57
2022/03/09 11:14:19;;;;;;;267.58;158.35;;;;;;;;;;10497592;28;20031;-53
2022/03/09 11:19:20;;;;;;;253.27;148.73;;;;;;;;;;11398114;22;20056;-59
2022/03/09 11:24:20;;;;;;;248.02;144.23;;;;;;;;;;10517790;28;20024;-57
2022/03/09 11:29:31;;;;;;;224.48;137.05;;;;;;;;;;10487314;28;22334;-52
2022/03/09 11:34:47;;;;;;;225.20;134.85;;;;;;;;;;10474472;28;20021;-51
2022/03/09 11:40:10;;;;;;;216.65;131.05;;;;;;;;;;10465077;28;20044;-51
2022/03/09 11:45:14;;;;;;;194.80;118.22;;;;;;;;;;10497488;28;20120;-50
2022/03/09 11:50:14;;;;;;;190.15;119.97;;;;;;;;;;10498815;28;20021;-55
2022/03/09 11:55:18;;;;;;;170.00;106.40;;;;;;;;;;10391795;28;56290;-53
2022/03/09 12:00:19;;;;;;;172.73;108.47;;;;;;;;;;10334724;28;20476;-54
2022/03/09 12:05:29;;;;;;;166.77;101.07;;;;;;;;;;10333553;28;20034;-54
2022/03/09 12:10:46;;;;;;;166.70;104.13;;;;;;;;;;10338629;28;20038;-54
2022/03/09 12:16:12;;;;;;;158.05;100.65;;;;;;;;;;10327571;28;20050;-55
2022/03/09 12:21:16;;;;;;;157.32;96.25;;;;;;;;;;10327876;28;20042;-58
2022/03/09 12:26:39;;;;;;;140.27;86.90;;;;;;;;;;10329143;28;20058;-57
2022/03/09 12:31:40;;;;;;;117.68;69.32;;;;;;;;;;10339574;28;20464;-56
2022/03/09 12:36:40;;;;;;;94.90;58.47;;;;;;;;;;10297074;28;20035;-56
2022/03/09 12:41:42;;;;;;;92.22;54.08;;;;;;;;;;10337413;28;20072;-57
2022/03/09 12:46:44;;;;;;;75.68;44.10;;;;;;;;;;10322445;28;20113;-58
2022/03/09 12:51:56;;;;;;;64.30;39.85;;;;;;;;;;10313946;28;20034;-57
2022/03/09 12:56:56;;;;;;;67.75;40.08;;;;;;;;;;10330846;28;20030;-57
2022/03/09 13:01:56;;;;;;;65.72;38.97;;;;;;;;;;10335380;28;20026;-61
2022/03/09 13:07:14;;;;;;;71.57;40.78;;;;;;;;;;10329149;28;20057;-62
2022/03/09 13:12:14;;;;;;;61.50;37.67;;;;;;;;;;10313353;28;20038;-55
2022/03/09 13:17:14;;;;;;;65.32;38.92;;;;;;;;;;10326628;28;20033;-53
2022/03/09 13:22:15;;;;;;;61.13;38.47;;;;;;;;;;10304302;28;20045;-57
2022/03/09 13:27:17;;;;;;;68.00;37.77;;;;;;;;;;10325665;28;20475;-62
2022/03/09 13:32:31;;;;;;;61.90;38.10;;;;;;;;;;10306635;28;20030;-62
2022/03/09 13:37:40;;;;;;;61.17;36.65;;;;;;;;;;10321622;28;20037;-61
2022/03/09 13:42:43;;;;;;;57.38;36.13;;;;;;;;;;10325477;28;20033;-58
2022/03/09 13:47:48;;;;;;;59.65;35.72;;;;;;;;;;10313998;28;20185;-60
2022/03/09 13:52:50;;;;;;;58.22;34.58;;;;;;;;;;10335709;28;20114;-56
2022/03/09 13:57:59;;;;;;;54.05;35.47;;;;;;;;;;10327963;28;20134;-49
2022/03/09 14:03:17;;;;;;;54.50;35.10;;;;;;;;;;10333844;28;20029;-56
2022/03/09 14:08:26;;;;;;;54.22;34.42;;;;;;;;;;10316473;28;20049;-60
2022/03/09 14:13:26;;;;;;;62.67;35.72;;;;;;;;;;10346293;28;20034;-60
2022/03/09 14:18:27;;;;;;;52.50;34.57;;;;;;;;;;10330920;28;20092;-61
2022/03/09 14:23:28;;;;;;;49.20;32.78;;;;;;;;;;10324740;28;20609;-58
2022/03/09 14:28:30;;;;;;;55.05;32.83;;;;;;;;;;10324073;28;20477;-52
2022/03/09 14:33:31;;;;;;;49.13;32.67;;;;;;;;;;10311587;28;20065;-56
2022/03/09 14:38:32;;;;;;;49.67;31.00;;;;;;;;;;10316623;28;20343;-65
2022/03/09 14:43:32;;;;;;;53.10;32.70;;;;;;;;;;10322700;28;20041;-64
2022/03/09 14:48:33;;;;;;;50.00;31.80;;;;;;;;;;10325843;28;20065;-63
2022/03/09 14:53:36;;;;;;;50.25;31.75;;;;;;;;;;10325322;28;20746;-56
2022/03/09 14:58:43;;;;;;;47.88;30.20;;;;;;;;;;10318999;28;20409;-51
2022/03/09 15:03:43;;;;;;;45.33;30.65;;;;;;;;;;10312715;28;20096;-60
2022/03/09 15:08:44;;;;;;;50.33;31.60;;;;;;;;;;10324434;28;20038;-59
2022/03/09 15:13:44;;;;;;;50.53;31.73;;;;;;;;;;10317381;28;20037;-53
2022/03/09 15:18:45;;;;;;;47.57;24.53;;;;;;;;;;10314029;28;20254;-59
2022/03/09 15:23:45;;;;;;;37.83;22.97;;;;;;;;;;10309222;28;20467;-61
2022/03/09 15:28:46;;;;;;;40.33;22.40;;;;;;;;;;10330630;28;20843;-54
2022/03/09 15:33:46;;;;;;;33.08;22.13;;;;;;;;;;10324214;28;20412;-55
2022/03/09 15:38:47;;;;;;;28.93;19.67;;;;;;;;;;10323167;28;20054;-56
2022/03/09 15:43:47;;;;;;;33.53;19.83;;;;;;;;;;10323259;28;20819;-59
2022/03/09 15:48:48;;;;;;;26.35;18.83;;;;;;;;;;10333858;28;20537;-49
2022/03/09 15:53:48;;;;;;;24.10;17.58;;;;;;;;;;10317892;28;20149;-56
2022/03/09 15:58:49;;;;;;;31.17;18.43;;;;;;;;;;10328563;28;20084;-55
2022/03/09 16:03:49;;;;;;;24.33;17.00;;;;;;;;;;10333941;28;20835;-60
2022/03/09 16:08:50;;;;;;;22.63;16.90;;;;;;;;;;10328754;28;20486;-54
2022/03/09 16:13:50;;;;;;;26.05;16.20;;;;;;;;;;10354486;28;20995;-50
2022/03/09 16:18:51;;;;;;;22.48;16.38;;;;;;;;;;10333558;28;20034;-53
2022/03/09 16:23:53;;;;;;;24.17;16.33;;;;;;;;;;10340016;28;20030;-50
2022/03/09 16:28:53;;;;;;;18.17;14.13;;;;;;;;;;10340557;28;21033;-57
2022/03/09 16:33:54;;;;;;;22.45;14.90;;;;;;;;;;10347502;28;20033;-49
2022/03/09 16:38:54;;;;;;;22.50;14.57;;;;;;;;;;10332354;28;20023;-56
2022/03/09 16:43:55;;;;;;;22.08;13.35;;;;;;;;;;10354424;28;20599;-59
2022/03/09 16:48:55;;;;;;;19.17;12.97;;;;;;;;;;10312992;28;20026;-58
2022/03/09 16:53:55;;;;;;;18.07;13.57;;;;;;;;;;10344847;28;20444;-52
2022/03/09 16:58:56;;;;;;;17.83;12.73;;;;;;;;;;10326172;28;20022;-56
2022/03/09 17:03:56;;;;;;;17.77;11.60;;;;;;;;;;10327333;28;20041;-54
2022/03/09 17:08:57;;;;;;;18.15;11.32;;;;;;;;;;10290030;28;20073;-56
2022/03/09 17:13:57;;;;;;;17.08;11.50;;;;;;;;;;10328457;28;20113;-51
2022/03/09 17:18:59;;;;;;;20.80;12.20;;;;;;;;;;10336687;28;20053;-49
2022/03/09 17:23:59;;;;;;;16.45;11.35;;;;;;;;;;10328834;28;20041;-57
2022/03/09 17:29:00;;;;;;;16.77;10.63;;;;;;;;;;10334382;28;20041;-48
2022/03/09 17:34:00;;;;;;;17.80;10.80;;;;;;;;;;10337818;28;20022;-58
2022/03/09 17:39:03;;;;;;;18.80;11.70;;;;;;;;;;10335332;28;20038;-48
2022/03/09 17:44:04;;;;;;;12.85;10.07;;;;;;;;;;10346958;28;21010;-61
2022/03/09 17:49:06;;;;;;;15.73;10.52;;;;;;;;;;10335571;28;20035;-61
2022/03/09 17:54:07;;;;;;;17.23;9.77;;;;;;;;;;10321542;28;20031;-59
2022/03/09 17:59:07;;;;;;;14.85;9.80;;;;;;;;;;10319045;28;20177;-62
2022/03/09 18:04:08;;;;;;;16.92;11.20;;;;;;;;;;10339334;28;20189;-68
2022/03/09 18:09:08;;;;;;;16.20;9.18;;;;;;;;;;10331378;28;20022;-58
2022/03/09 18:14:08;;;;;;;17.38;10.20;;;;;;;;;;10339896;28;20033;-60
2022/03/09 18:19:09;;;;;;;16.52;10.60;;;;;;;;;;10322576;28;20048;-63
2022/03/09 18:24:09;;;;;;;16.25;9.20;;;;;;;;;;10310819;28;20046;-64
2022/03/09 18:29:10;;;;;;;13.13;9.18;;;;;;;;;;10333716;28;20117;-48
2022/03/09 18:34:10;;;;;;;15.27;9.50;;;;;;;;;;10320731;28;20528;-53
2022/03/09 18:39:11;;;;;;;16.23;10.40;;;;;;;;;;10336014;28;20513;-49
2022/03/09 18:44:12;;;;;;;19.73;10.90;;;;;;;;;;10341633;28;20398;-48
2022/03/09 18:49:13;;;;;;;16.87;10.97;;;;;;;;;;10331378;28;20022;-53
2022/03/09 18:54:13;;;;;;;17.95;11.18;;;;;;;;;;10334629;28;20546;-53
2022/03/09 18:59:13;;;;;;;19.27;11.27;;;;;;;;;;10318558;28;20033;-48
2022/03/09 19:04:14;;;;;;;17.52;11.18;;;;;;;;;;10334020;28;20562;-48
2022/03/09 19:09:14;;;;;;;16.07;11.20;;;;;;;;;;10338126;28;20110;-50
2022/03/09 19:14:15;;;;;;;18.40;10.95;;;;;;;;;;10352796;28;21117;-48
2022/03/09 19:19:16;;;;;;;24.00;10.83;;;;;;;;;;10336631;28;20505;-49
2022/03/09 19:24:16;;;;;;;15.43;10.38;;;;;;;;;;10336705;28;20456;-49
2022/03/09 19:29:16;;;;;;;15.90;10.23;;;;;;;;;;10340514;28;20037;-49
2022/03/09 19:34:17;;;;;;;17.63;10.50;;;;;;;;;;10339910;28;20460;-50
2022/03/09 19:39:17;;;;;;;19.60;10.75;;;;;;;;;;10346098;28;20045;-48
2022/03/09 19:44:18;;;;;;;15.88;10.13;;;;;;;;;;10340104;28;20045;-50
2022/03/09 19:49:18;;;;;;;19.97;10.33;;;;;;;;;;10340582;28;20113;-48
2022/03/09 19:54:21;;;;;;;15.20;10.27;;;;;;;;;;10338450;28;21069;-51
2022/03/09 19:59:21;;;;;;;14.38;10.07;;;;;;;;;;10363406;28;20025;-48
2022/03/09 20:04:22;;;;;;;15.57;10.07;;;;;;;;;;10341032;28;20485;-48
2022/03/09 20:09:22;;;;;;;16.98;9.38;;;;;;;;;;10342594;28;20129;-48
2022/03/09 20:14:23;;;;;;;16.50;9.63;;;;;;;;;;10335744;28;20031;-48
2022/03/09 20:19:23;;;;;;;15.77;9.53;;;;;;;;;;10333631;28;20054;-52
2022/03/09 20:24:24;;;;;;;16.70;8.57;;;;;;;;;;10340552;28;20034;-52
2022/03/09 20:29:25;;;;;;;12.93;8.45;;;;;;;;;;10339575;28;20034;-48
2022/03/09 20:34:27;;;;;;;13.40;9.35;;;;;;;;;;10325432;28;20038;-49
2022/03/09 20:39:31;;;;;;;13.05;8.50;;;;;;;;;;10348020;28;20061;-55
2022/03/09 20:44:32;;;;;;;13.68;8.85;;;;;;;;;;10345168;28;20026;-49
2022/03/09 20:49:32;;;;;;;14.95;9.40;;;;;;;;;;10346962;28;20451;-51
2022/03/09 20:54:33;;;;;;;10.90;8.10;;;;;;;;;;10332991;28;20093;-49
2022/03/09 20:59:33;;;;;;;11.23;8.03;;;;;;;;;;10340595;28;20029;-52
2022/03/09 21:04:34;;;;;;;12.43;8.63;;;;;;;;;;10335047;28;20967;-53
2022/03/09 21:09:34;;;;;;;13.70;9.02;;;;;;;;;;10350622;28;20492;-49
2022/03/09 21:14:35;;;;;;;11.98;7.88;;;;;;;;;;10330825;28;20029;-50
2022/03/09 21:19:36;;;;;;;15.30;8.43;;;;;;;;;;10323505;28;20167;-49
2022/03/09 21:29:56;;;;;;;12.30;7.95;;;;;;;;;;10329050;28;20031;-51
2022/03/09 21:34:58;;;;;;;14.60;8.70;;;;;;;;;;10302798;28;20490;-53
2022/03/09 21:39:59;;;;;;;11.63;7.93;;;;;;;;;;10309159;28;20551;-51
2022/03/09 21:44:59;;;;;;;16.45;8.73;;;;;;;;;;10314935;28;20265;-49
2022/03/09 21:50:00;;;;;;;13.77;7.75;;;;;;;;;;10291481;28;20035;-49
2022/03/09 21:55:00;;;;;;;12.43;8.05;;;;;;;;;;10312545;28;20033;-49
2022/03/09 22:00:03;;;;;;;12.93;8.15;;;;;;;;;;10294130;28;20049;-47
2022/03/09 22:05:04;;;;;;;14.82;8.15;;;;;;;;;;10304408;28;20031;-48
2022/03/09 22:10:05;;;;;;;12.65;8.18;;;;;;;;;;10287835;28;20382;-51
2022/03/09 22:15:06;;;;;;;15.10;8.00;;;;;;;;;;10298414;28;20425;-49
2022/03/09 22:20:08;;;;;;;13.43;8.45;;;;;;;;;;10255462;28;1119721;-50
2022/03/09 22:25:09;;;;;;;13.80;7.57;;;;;;;;;;10295590;28;20029;-52
2022/03/09 22:30:10;;;;;;;12.98;8.07;;;;;;;;;;10304297;28;20026;-49
2022/03/09 22:35:10;;;;;;;11.15;7.57;;;;;;;;;;10297579;28;20492;-53
2022/03/09 22:40:11;;;;;;;13.38;8.02;;;;;;;;;;10292516;28;20442;-53
2022/03/09 22:45:12;;;;;;;12.93;7.22;;;;;;;;;;10296769;28;20034;-48
2022/03/09 22:50:12;;;;;;;12.18;7.47;;;;;;;;;;10307344;28;20438;-48
2022/03/09 22:55:12;;;;;;;11.60;7.63;;;;;;;;;;10304511;28;20014;-47
2022/03/09 23:00:32;;;;;;;11.63;7.38;;;;;;;;;;10300247;28;20033;-47
2022/03/09 23:05:32;;;;;;;11.10;7.15;;;;;;;;;;10307619;28;20113;-48
2022/03/09 23:10:33;;;;;;;9.63;7.20;;;;;;;;;;10295153;28;20381;-48
2022/03/09 23:15:34;;;;;;;11.38;7.05;;;;;;;;;;10308478;28;20063;-48
2022/03/09 23:20:35;;;;;;;8.50;6.68;;;;;;;;;;10297229;28;20282;-49
2022/03/09 23:25:36;;;;;;;9.70;7.30;;;;;;;;;;10298351;28;20282;-47
2022/03/09 23:30:37;;;;;;;11.90;7.00;;;;;;;;;;10312894;28;20390;-52
2022/03/09 23:35:38;;;;;;;9.75;6.97;;;;;;;;;;10303944;28;20038;-48
2022/03/09 23:40:39;;;;;;;10.35;7.15;;;;;;;;;;10298659;28;20027;-50
2022/03/09 23:45:39;;;;;;;11.18;6.95;;;;;;;;;;10293332;28;20038;-47
2022/03/09 23:50:40;;;;;;;9.98;6.95;;;;;;;;;;10302458;28;20030;-48
2022/03/09 23:55:40;;;;;;;13.38;6.95;;;;;;;;;;10308909;28;20474;-51
